Time;durP1;ratioP1;P1;durP2;ratioP2;P2;SDS_P1;SDS_P2;PMS_P1;PMS_P2;Temp;Humidity;BMP_temperature;BMP_pressure;BME280_temperature;BME280_humidity;BME280_pressure;Samples;Min_cycle;Max_cycle;Signal;HPM_P1;HPM_P2
2023/01/13 00:01:13;;;;;;;25.02;23.63;;;12.70;99.90;;;;;;4917010;29;20039;-83
2023/01/13 00:03:39;;;;;;;21.63;20.42;;;12.70;99.90;;;;;;4917226;29;20035;-82
2023/01/13 00:06:06;;;;;;;21.15;20.05;;;12.70;99.90;;;;;;4916107;29;20331;-82
2023/01/13 00:08:32;;;;;;;22.02;20.73;;;12.70;99.90;;;;;;4934979;29;20031;-82
2023/01/13 00:10:58;;;;;;;22.90;21.55;;;12.70;99.90;;;;;;4901287;29;20047;-82
2023/01/13 00:13:27;;;;;;;20.58;19.13;;;12.70;99.90;;;;;;4917812;29;20058;-82
2023/01/13 00:16:16;;;;;;;22.23;20.85;;;12.60;99.90;;;;;;4917649;29;20481;-82
2023/01/13 00:18:43;;;;;;;23.85;22.40;;;12.60;99.90;;;;;;4915929;29;20024;-82
2023/01/13 00:21:14;;;;;;;29.40;27.40;;;12.60;99.90;;;;;;4892131;29;20044;-82
2023/01/13 00:23:40;;;;;;;27.02;25.38;;;12.60;99.90;;;;;;4917233;29;20040;-82
2023/01/13 00:26:08;;;;;;;24.10;22.63;;;12.50;99.90;;;;;;4902308;29;20461;-82
2023/01/13 00:28:36;;;;;;;20.52;18.88;;;12.50;99.90;;;;;;4889390;29;20040;-81
2023/01/13 00:31:07;;;;;;;21.60;20.02;;;12.50;99.90;;;;;;4900465;29;20036;-82
2023/01/13 00:33:34;;;;;;;20.23;18.70;;;12.40;99.90;;;;;;4917302;29;20032;-82
2023/01/13 00:36:00;;;;;;;19.35;18.05;;;12.40;99.90;;;;;;4917882;29;20358;-82
2023/01/13 00:38:27;;;;;;;18.27;17.08;;;12.30;99.90;;;;;;4916606;29;20024;-82
2023/01/13 00:41:00;;;;;;;19.23;17.63;;;12.30;99.90;;;;;;4916958;29;20032;-82
2023/01/13 00:43:26;;;;;;;18.70;17.20;;;12.30;99.90;;;;;;4936576;29;20031;-82
2023/01/13 00:45:53;;;;;;;18.50;17.20;;;12.20;99.90;;;;;;4920913;29;20032;-82
2023/01/13 00:48:19;;;;;;;18.02;16.80;;;12.20;99.90;;;;;;4904885;29;20062;-82
2023/01/13 00:50:45;;;;;;;18.73;17.42;;;12.20;99.90;;;;;;4904796;29;20039;-82
2023/01/13 00:53:12;;;;;;;17.45;16.10;;;12.10;99.90;;;;;;4905428;29;20043;-82
2023/01/13 00:55:38;;;;;;;18.50;16.92;;;12.10;99.90;;;;;;4919848;29;20059;-82
2023/01/13 00:58:04;;;;;;;17.70;16.48;;;12.10;99.90;;;;;;4903859;29;20040;-81
2023/01/13 01:00:34;;;;;;;18.67;17.33;;;12.10;99.90;;;;;;4919595;29;20035;-82
2023/01/13 01:03:00;;;;;;;17.85;16.23;;;12.10;99.90;;;;;;4920080;29;20039;-82
2023/01/13 01:05:26;;;;;;;17.77;16.42;;;12.00;99.90;;;;;;4937954;29;20036;-82
2023/01/13 01:07:52;;;;;;;18.30;16.80;;;12.00;99.90;;;;;;4920837;29;20032;-82
2023/01/13 01:10:18;;;;;;;19.20;16.73;;;11.90;99.90;;;;;;4937885;29;20028;-81
2023/01/13 01:12:44;;;;;;;16.92;15.55;;;11.90;99.90;;;;;;4920170;29;20047;-82
2023/01/13 01:15:10;;;;;;;17.50;15.95;;;11.90;99.90;;;;;;4936089;28;20051;-82
2023/01/13 01:17:36;;;;;;;17.73;16.08;;;11.90;99.90;;;;;;4919254;29;20125;-82
2023/01/13 01:20:03;;;;;;;16.85;15.40;;;11.80;99.90;;;;;;4924641;29;20398;-82
2023/01/13 01:22:29;;;;;;;18.60;16.92;;;11.80;99.90;;;;;;4939359;29;20039;-82
2023/01/13 01:24:56;;;;;;;16.55;14.65;;;11.80;99.90;;;;;;4935765;29;20035;-82
2023/01/13 01:27:22;;;;;;;18.50;17.05;;;11.80;99.90;;;;;;4946524;29;20501;-82
2023/01/13 01:29:48;;;;;;;18.20;16.50;;;11.80;99.90;;;;;;4905589;29;20042;-81
2023/01/13 01:32:14;;;;;;;17.95;16.48;;;11.80;99.90;;;;;;4919495;29;20032;-81
2023/01/13 01:34:40;;;;;;;19.00;17.40;;;11.70;99.90;;;;;;4937147;29;20044;-82
2023/01/13 01:37:06;;;;;;;18.27;16.48;;;11.70;99.90;;;;;;4937339;29;20028;-81
2023/01/13 01:39:33;;;;;;;21.33;15.98;;;11.70;99.90;;;;;;4920281;29;20466;-81
2023/01/13 01:45:01;;;;;;;23.58;16.63;;;11.60;99.90;;;;;;4938804;29;20496;-82
2023/01/13 01:47:27;;;;;;;19.27;17.23;;;11.60;99.90;;;;;;4919094;29;20039;-82
2023/01/13 01:49:54;;;;;;;20.00;17.65;;;11.60;99.90;;;;;;4919028;29;20042;-82
2023/01/13 01:52:41;;;;;;;19.98;16.90;;;11.60;99.90;;;;;;4919911;29;20474;-82
2023/01/13 01:55:17;;;;;;;17.80;15.38;;;11.60;99.90;;;;;;4918942;29;20051;-81
2023/01/13 01:57:52;;;;;;;24.00;16.83;;;11.60;99.90;;;;;;4919827;29;20024;-82
2023/01/13 02:00:18;;;;;;;23.73;17.02;;;11.60;99.90;;;;;;4919022;28;20040;-82
2023/01/13 02:02:46;;;;;;;26.55;17.42;;;11.50;99.90;;;;;;4919472;29;20059;-82
2023/01/13 02:05:12;;;;;;;21.05;16.00;;;11.50;99.90;;;;;;4902684;29;20392;-82
2023/01/13 02:07:38;;;;;;;21.58;16.52;;;11.50;99.90;;;;;;4903822;29;20044;-82
2023/01/13 02:10:07;;;;;;;22.58;16.40;;;11.50;99.90;;;;;;4919901;29;20381;-82
2023/01/13 02:12:33;;;;;;;24.90;18.00;;;11.50;99.90;;;;;;4918985;29;20056;-82
2023/01/13 02:15:09;;;;;;;23.40;16.65;;;11.50;99.90;;;;;;4919471;29;20047;-82
2023/01/13 02:17:38;;;;;;;31.95;17.40;;;11.50;99.90;;;;;;4916442;29;20040;-82
2023/01/13 02:20:10;;;;;;;27.35;17.05;;;11.60;99.90;;;;;;4937145;29;20035;-82
2023/01/13 02:22:36;;;;;;;25.38;18.15;;;11.60;99.90;;;;;;4925230;29;20055;-82
2023/01/13 02:25:25;;;;;;;33.92;18.17;;;11.60;99.90;;;;;;4936130;29;20361;-82
2023/01/13 02:27:55;;;;;;;23.98;18.40;;;11.60;99.90;;;;;;4937870;29;20034;-84
2023/01/13 02:33:22;;;;;;;28.80;17.77;;;11.60;99.90;;;;;;4938662;29;20051;-84
2023/01/13 02:35:56;;;;;;;35.08;17.88;;;11.60;99.90;;;;;;4935681;29;20051;-83
2023/01/13 02:38:26;;;;;;;22.98;18.63;;;11.60;99.90;;;;;;4919414;29;20047;-84
2023/01/13 02:40:58;;;;;;;34.20;18.13;;;11.60;99.90;;;;;;4918265;29;20028;-84
2023/01/13 02:46:22;;;;;;;25.15;16.50;;;11.60;99.90;;;;;;4924339;29;20421;-84
2023/01/13 02:48:48;;;;;;;22.63;16.02;;;11.60;99.90;;;;;;4913700;29;20055;-83
2023/01/13 02:51:15;;;;;;;23.45;17.23;;;11.60;99.90;;;;;;4916094;29;20044;-84
2023/01/13 02:53:46;;;;;;;19.35;17.35;;;11.50;99.90;;;;;;4921674;29;20032;-84
2023/01/13 02:56:13;;;;;;;28.00;17.42;;;11.50;99.90;;;;;;4925970;29;20047;-84
2023/01/13 02:58:39;;;;;;;21.52;16.02;;;11.50;99.90;;;;;;4902937;29;20031;-84
2023/01/13 03:01:05;;;;;;;23.45;16.30;;;11.50;99.90;;;;;;4900825;29;20039;-84
2023/01/13 03:03:31;;;;;;;21.48;16.83;;;11.50;99.90;;;;;;4909894;29;20051;-84
2023/01/13 03:06:15;;;;;;;25.83;16.88;;;11.40;99.90;;;;;;4909634;29;20024;-82
2023/01/13 03:08:47;;;;;;;21.98;17.33;;;11.40;99.90;;;;;;4924510;29;20054;-82
2023/01/13 03:11:15;;;;;;;22.42;17.60;;;11.50;99.90;;;;;;4917418;29;20398;-82
2023/01/13 03:13:44;;;;;;;24.80;17.38;;;11.40;99.90;;;;;;4932710;29;20050;-82
2023/01/13 03:16:30;;;;;;;22.15;16.95;;;11.40;99.90;;;;;;4930576;28;20064;-84
2023/01/13 03:19:09;;;;;;;24.20;18.05;;;11.30;99.90;;;;;;4916181;29;20100;-84
2023/01/13 03:21:39;;;;;;;20.65;17.83;;;11.40;99.90;;;;;;4933214;29;20042;-81
2023/01/13 03:24:32;;;;;;;24.80;18.42;;;11.30;99.90;;;;;;4926050;29;20268;-84
2023/01/13 03:27:06;;;;;;;25.98;17.60;;;11.30;99.90;;;;;;4911844;29;20040;-84
2023/01/13 03:29:36;;;;;;;26.40;17.38;;;11.20;99.90;;;;;;4899251;29;20039;-84
2023/01/13 03:32:06;;;;;;;25.85;18.45;;;11.10;99.90;;;;;;4914121;29;20028;-84
2023/01/13 03:34:36;;;;;;;23.63;18.37;;;11.10;99.90;;;;;;4932688;29;20039;-83
2023/01/13 03:37:03;;;;;;;19.98;17.42;;;11.00;99.90;;;;;;4905977;29;20795;-83
2023/01/13 03:39:33;;;;;;;27.50;17.88;;;11.00;99.90;;;;;;4917043;29;20482;-84
2023/01/13 03:42:17;;;;;;;21.55;17.15;;;11.00;99.90;;;;;;4918318;29;20035;-83
2023/01/13 03:44:59;;;;;;;27.73;18.80;;;11.00;99.90;;;;;;4917018;29;20492;-83
2023/01/13 03:47:32;;;;;;;21.63;16.88;;;10.90;99.90;;;;;;4908054;29;20095;-84
2023/01/13 03:50:15;;;;;;;23.27;18.98;;;10.90;99.90;;;;;;4915473;29;20043;-85
2023/01/13 03:52:46;;;;;;;24.73;17.67;;;11.00;99.90;;;;;;4926595;29;20112;-84
2023/01/13 03:55:17;;;;;;;26.20;17.20;;;11.00;99.90;;;;;;4912562;29;20031;-84
2023/01/13 03:58:13;;;;;;;23.73;17.75;;;11.00;99.90;;;;;;4913565;29;20036;-83
2023/01/13 04:01:11;;;;;;;23.13;17.33;;;11.00;99.90;;;;;;4927165;29;20040;-82
2023/01/13 04:03:53;;;;;;;22.13;17.58;;;10.90;99.90;;;;;;4919920;29;20034;-83
2023/01/13 04:06:49;;;;;;;26.95;19.25;;;10.90;99.90;;;;;;4924793;29;20503;-83
2023/01/13 04:09:18;;;;;;;21.90;17.15;;;10.90;99.90;;;;;;4920748;29;20101;-84
2023/01/13 04:11:55;;;;;;;32.42;18.95;;;10.80;99.90;;;;;;4918110;29;20496;-85
2023/01/13 04:14:21;;;;;;;26.95;20.02;;;10.80;99.90;;;;;;4920239;29;20047;-84
2023/01/13 04:16:47;;;;;;;28.02;19.00;;;10.80;99.90;;;;;;4882355;29;20051;-84
2023/01/13 04:19:13;;;;;;;26.55;19.67;;;10.70;99.90;;;;;;4921810;29;20493;-84
2023/01/13 04:21:39;;;;;;;28.02;19.13;;;10.80;99.90;;;;;;4919556;29;20032;-83
2023/01/13 04:24:07;;;;;;;25.17;18.02;;;10.70;99.90;;;;;;4904970;29;20051;-82
2023/01/13 04:26:33;;;;;;;29.13;18.55;;;10.70;99.90;;;;;;4908902;29;20050;-82
2023/01/13 04:28:59;;;;;;;28.42;17.75;;;10.80;99.90;;;;;;4921086;29;20040;-82
2023/01/13 04:31:26;;;;;;;33.95;18.35;;;10.80;99.90;;;;;;4921173;29;20042;-82
2023/01/13 04:33:52;;;;;;;33.78;18.13;;;10.70;99.90;;;;;;4938508;29;20039;-82
2023/01/13 04:36:18;;;;;;;32.88;18.58;;;10.70;99.90;;;;;;4919330;29;20050;-82
2023/01/13 04:38:44;;;;;;;40.85;19.48;;;10.70;99.90;;;;;;4921551;29;20474;-82
2023/01/13 04:41:10;;;;;;;28.75;18.60;;;10.70;99.90;;;;;;4937857;29;20040;-83
2023/01/13 04:43:36;;;;;;;25.15;18.42;;;10.70;99.90;;;;;;4921705;29;20039;-82
2023/01/13 04:46:03;;;;;;;33.85;20.20;;;10.60;99.90;;;;;;4937862;29;20036;-82
2023/01/13 04:48:29;;;;;;;28.10;20.17;;;10.60;99.90;;;;;;4938371;29;20043;-82
2023/01/13 04:50:55;;;;;;;39.83;20.58;;;10.60;99.90;;;;;;4920495;29;20485;-82
2023/01/13 04:53:21;;;;;;;38.60;19.50;;;10.60;99.90;;;;;;4921374;29;20024;-82
2023/01/13 04:55:48;;;;;;;52.88;22.65;;;10.60;99.90;;;;;;4937527;29;20393;-82
2023/01/13 04:58:14;;;;;;;38.80;19.75;;;10.50;99.90;;;;;;4921612;29;20039;-82
2023/01/13 05:00:40;;;;;;;39.08;20.50;;;10.60;99.90;;;;;;4920613;29;20032;-82
2023/01/13 05:03:07;;;;;;;71.75;19.65;;;10.60;99.90;;;;;;4905542;29;20043;-82
2023/01/13 05:05:33;;;;;;;33.38;18.73;;;10.50;99.90;;;;;;4919171;29;20035;-82
2023/01/13 05:07:59;;;;;;;30.33;19.75;;;10.50;99.90;;;;;;4905287;29;20027;-82
2023/01/13 05:10:25;;;;;;;34.17;19.38;;;10.60;99.90;;;;;;4904206;29;20482;-82
2023/01/13 05:18:22;;;;;;;37.55;19.90;;;10.60;99.90;;;;;;4924760;29;20393;-82
2023/01/13 05:20:48;;;;;;;41.15;22.02;;;10.60;99.90;;;;;;4916417;29;20408;-83
2023/01/13 05:25:59;;;;;;;35.83;19.15;;;10.70;99.90;;;;;;4929280;29;20047;-83
2023/01/13 05:28:25;;;;;;;39.38;20.17;;;10.80;99.90;;;;;;4907474;28;20043;-82
2023/01/13 05:30:51;;;;;;;46.05;20.90;;;10.70;99.90;;;;;;4922529;28;20504;-82
2023/01/13 05:33:19;;;;;;;75.20;23.30;;;10.70;99.90;;;;;;4893949;29;20059;-83
2023/01/13 05:35:45;;;;;;;47.83;22.05;;;10.80;99.90;;;;;;4919685;29;20420;-82
2023/01/13 05:38:12;;;;;;;41.25;20.75;;;10.80;99.90;;;;;;4919038;29;20039;-82
2023/01/13 05:43:23;;;;;;;35.65;19.58;;;10.70;99.90;;;;;;4929316;29;20121;-82
2023/01/13 05:45:50;;;;;;;32.97;18.08;;;10.60;99.90;;;;;;4883410;29;20044;-82
2023/01/13 05:48:18;;;;;;;31.02;18.73;;;10.60;99.90;;;;;;4916620;29;20028;-83
2023/01/13 05:50:44;;;;;;;117.15;23.23;;;10.60;99.90;;;;;;4901410;29;20028;-82
2023/01/13 05:53:10;;;;;;;38.50;18.23;;;10.60;99.90;;;;;;4916955;29;20028;-83
2023/01/13 05:55:40;;;;;;;33.85;19.23;;;10.60;99.90;;;;;;4900421;29;20442;-83
2023/01/13 05:58:13;;;;;;;26.30;18.10;;;10.70;99.90;;;;;;4885500;29;20389;-83
2023/01/13 06:00:39;;;;;;;46.20;18.92;;;10.70;99.90;;;;;;4896057;29;20044;-83
2023/01/13 06:03:05;;;;;;;41.10;20.33;;;10.70;99.90;;;;;;4903130;29;20043;-83
2023/01/13 06:05:32;;;;;;;29.80;18.80;;;10.70;99.90;;;;;;4918357;29;20051;-83
2023/01/13 06:07:58;;;;;;;34.28;18.42;;;10.70;99.90;;;;;;4926754;29;20358;-83
2023/01/13 06:10:25;;;;;;;32.17;18.90;;;10.60;99.90;;;;;;4919097;29;20035;-83
2023/01/13 06:12:51;;;;;;;43.13;19.73;;;10.60;99.90;;;;;;4919400;29;20036;-83
2023/01/13 06:15:17;;;;;;;34.05;18.88;;;10.60;99.90;;;;;;4917600;28;20048;-83
2023/01/13 06:17:43;;;;;;;34.05;17.77;;;10.60;99.90;;;;;;4919373;29;20024;-83
2023/01/13 06:20:10;;;;;;;51.70;23.77;;;10.60;99.90;;;;;;4908085;29;20507;-83
2023/01/13 06:22:38;;;;;;;35.03;19.85;;;10.50;99.90;;;;;;4927734;29;20072;-82
2023/01/13 06:25:34;;;;;;;37.03;19.90;;;10.60;99.90;;;;;;4919755;29;20284;-82
2023/01/13 06:28:00;;;;;;;32.22;19.17;;;10.60;99.90;;;;;;4901879;29;20039;-84
2023/01/13 06:30:27;;;;;;;40.67;19.63;;;10.60;99.90;;;;;;4916471;29;20036;-83
2023/01/13 06:32:54;;;;;;;32.35;19.83;;;10.60;99.90;;;;;;4917479;29;20482;-84
2023/01/13 06:35:24;;;;;;;37.13;19.85;;;10.60;99.90;;;;;;4917336;29;20056;-85
2023/01/13 06:37:51;;;;;;;27.05;18.75;;;10.50;99.90;;;;;;4919063;29;20038;-87
2023/01/13 06:40:17;;;;;;;32.78;18.30;;;10.50;99.90;;;;;;4918324;29;20039;-86
2023/01/13 06:45:28;;;;;;;27.48;16.10;;;10.50;99.90;;;;;;4920879;29;20050;-86
2023/01/13 06:47:55;;;;;;;25.42;15.93;;;10.50;99.90;;;;;;4900030;29;20047;-85
2023/01/13 06:50:21;;;;;;;31.40;16.65;;;10.50;99.90;;;;;;4917953;29;20027;-85
2023/01/13 06:52:48;;;;;;;30.77;16.63;;;10.50;99.90;;;;;;4902343;29;20066;-87
2023/01/13 06:55:14;;;;;;;26.60;16.75;;;10.60;99.90;;;;;;4918569;29;20038;-87
2023/01/13 06:57:48;;;;;;;28.17;17.58;;;10.70;99.90;;;;;;4918410;29;20028;-86
2023/01/13 07:00:14;;;;;;;31.55;19.05;;;10.70;99.90;;;;;;4917002;29;20028;-85
2023/01/13 07:02:40;;;;;;;34.05;18.95;;;10.60;99.90;;;;;;4899062;29;20048;-86
2023/01/13 07:05:07;;;;;;;36.60;17.45;;;10.60;99.90;;;;;;4931548;29;20050;-85
2023/01/13 07:07:33;;;;;;;32.38;17.83;;;10.50;99.90;;;;;;4935503;29;20032;-87
2023/01/13 07:09:59;;;;;;;28.75;17.40;;;10.50;99.90;;;;;;4918419;29;20109;-86
2023/01/13 07:12:25;;;;;;;35.17;19.15;;;10.50;99.90;;;;;;4933918;29;20062;-86
2023/01/13 07:17:36;;;;;;;28.58;17.40;;;10.40;99.90;;;;;;4919107;29;20054;-86
2023/01/13 07:20:02;;;;;;;34.25;17.95;;;10.40;99.90;;;;;;4920773;29;20035;-88
2023/01/13 07:22:28;;;;;;;35.95;20.00;;;10.40;99.90;;;;;;4935719;29;20035;-85
2023/01/13 07:24:55;;;;;;;29.80;18.60;;;10.40;99.90;;;;;;4908236;29;20048;-85
2023/01/13 07:27:21;;;;;;;34.20;21.10;;;10.40;99.90;;;;;;4911851;29;20043;-85
2023/01/13 07:29:47;;;;;;;33.40;19.90;;;10.40;99.90;;;;;;4918196;29;20099;-83
2023/01/13 07:32:14;;;;;;;30.67;19.45;;;10.30;99.90;;;;;;4918144;29;20493;-84
2023/01/13 07:34:40;;;;;;;30.42;19.05;;;10.40;99.90;;;;;;4918491;29;20043;-83
2023/01/13 07:37:06;;;;;;;30.33;20.83;;;10.30;99.90;;;;;;4918041;29;20062;-84
2023/01/13 07:39:32;;;;;;;26.25;18.75;;;10.30;99.90;;;;;;4931561;29;20046;-89
2023/01/13 07:44:43;;;;;;;31.35;18.83;;;10.30;99.90;;;;;;4923692;29;20400;-84
2023/01/13 07:47:10;;;;;;;31.83;19.90;;;10.30;99.90;;;;;;4917322;29;20032;-85
2023/01/13 07:49:36;;;;;;;37.85;21.02;;;10.20;99.90;;;;;;4918698;29;20043;-85
2023/01/13 07:52:02;;;;;;;30.20;18.65;;;10.20;99.90;;;;;;4917451;29;20389;-85
2023/01/13 07:54:28;;;;;;;50.17;23.38;;;10.20;99.90;;;;;;4907451;29;20059;-83
2023/01/13 07:56:57;;;;;;;36.08;23.38;;;10.10;99.90;;;;;;4898639;29;20052;-84
2023/01/13 07:59:23;;;;;;;32.90;20.25;;;10.20;99.90;;;;;;4900971;29;20043;-88
2023/01/13 08:01:51;;;;;;;34.90;19.67;;;10.20;99.90;;;;;;4917527;29;20505;-88
2023/01/13 08:04:17;;;;;;;34.65;18.88;;;10.20;99.90;;;;;;4917584;29;20042;-90
2023/01/13 08:06:44;;;;;;;30.85;17.77;;;10.20;99.90;;;;;;4931474;29;20386;-85
2023/01/13 08:09:10;;;;;;;36.47;17.90;;;10.20;99.90;;;;;;4917043;29;20040;-84
2023/01/13 08:11:36;;;;;;;22.52;17.40;;;10.20;99.90;;;;;;4915130;29;20039;-85
2023/01/13 08:14:02;;;;;;;40.78;22.77;;;10.20;99.90;;;;;;4916168;29;20047;-84
2023/01/13 08:16:28;;;;;;;34.25;20.20;;;10.30;99.90;;;;;;4917550;29;20039;-85
2023/01/13 08:18:54;;;;;;;39.05;22.92;;;10.30;99.90;;;;;;4900488;29;20539;-86
2023/01/13 08:21:20;;;;;;;44.78;23.23;;;10.30;99.90;;;;;;4917315;29;20035;-84
2023/01/13 08:23:46;;;;;;;30.60;20.50;;;10.30;99.90;;;;;;4917447;29;20406;-84
2023/01/13 08:26:14;;;;;;;32.13;21.05;;;10.20;99.90;;;;;;4900086;29;20610;-84
2023/01/13 08:28:40;;;;;;;37.58;19.67;;;10.20;99.90;;;;;;4916007;29;20040;-84
2023/01/13 08:31:09;;;;;;;44.45;23.35;;;10.10;99.90;;;;;;4917319;29;20035;-83
2023/01/13 08:33:35;;;;;;;45.53;23.02;;;10.10;99.90;;;;;;4916891;29;20413;-85
2023/01/13 08:36:03;;;;;;;35.00;19.42;;;10.20;99.90;;;;;;4916793;29;20044;-82
2023/01/13 08:38:29;;;;;;;51.00;23.02;;;10.20;99.90;;;;;;4918009;29;20053;-82
2023/01/13 08:40:55;;;;;;;40.33;21.00;;;10.20;99.90;;;;;;4898337;29;20052;-82
2023/01/13 08:43:21;;;;;;;26.98;17.75;;;10.30;99.90;;;;;;4922370;29;20035;-82
2023/01/13 08:45:58;;;;;;;26.23;17.73;;;10.30;99.90;;;;;;4915961;29;20047;-83
2023/01/13 08:48:24;;;;;;;28.60;17.25;;;10.30;99.90;;;;;;4911403;29;20412;-83
2023/01/13 08:50:50;;;;;;;31.98;18.05;;;10.20;99.90;;;;;;4898899;29;20050;-84
2023/01/13 08:53:16;;;;;;;32.50;17.45;;;10.30;99.90;;;;;;4898745;29;20052;-83
2023/01/13 08:55:43;;;;;;;30.35;17.98;;;10.30;99.90;;;;;;4932830;29;20036;-83
2023/01/13 08:58:09;;;;;;;32.13;18.00;;;10.40;99.90;;;;;;4917268;29;20032;-83
2023/01/13 09:00:35;;;;;;;27.27;17.45;;;10.40;99.90;;;;;;4917152;29;20039;-83
2023/01/13 09:03:01;;;;;;;31.98;18.58;;;10.30;99.90;;;;;;4914048;29;20024;-84
2023/01/13 09:05:27;;;;;;;30.20;18.02;;;10.40;99.90;;;;;;4920011;29;20036;-83
2023/01/13 09:07:53;;;;;;;32.40;18.27;;;10.40;99.90;;;;;;4921042;29;20393;-83
2023/01/13 09:10:19;;;;;;;36.80;17.67;;;10.50;99.90;;;;;;4905338;29;20039;-83
2023/01/13 09:15:29;;;;;;;39.55;17.83;;;10.50;99.90;;;;;;4921767;28;20046;-83
2023/01/13 09:17:56;;;;;;;23.75;16.25;;;10.60;99.90;;;;;;4918889;29;20036;-85
2023/01/13 09:20:22;;;;;;;28.00;17.88;;;10.70;99.90;;;;;;4925778;29;20035;-83
2023/01/13 09:22:48;;;;;;;34.10;17.50;;;10.70;99.90;;;;;;4920709;29;20042;-83
2023/01/13 09:25:14;;;;;;;29.05;17.52;;;10.70;99.90;;;;;;4903724;29;20035;-83
2023/01/13 09:27:40;;;;;;;37.20;18.52;;;10.80;99.90;;;;;;4934872;29;20027;-83
2023/01/13 09:30:07;;;;;;;26.63;18.77;;;10.80;99.90;;;;;;4917697;28;20027;-85
2023/01/13 09:32:33;;;;;;;41.83;19.33;;;10.90;99.90;;;;;;4933052;29;20044;-83
2023/01/13 09:34:59;;;;;;;33.15;16.92;;;10.90;99.90;;;;;;4920070;29;20032;-84
2023/01/13 09:37:27;;;;;;;33.58;21.35;;;11.00;99.90;;;;;;4919931;29;20055;-80
2023/01/13 09:39:53;;;;;;;32.58;17.95;;;11.00;99.90;;;;;;4920152;29;20024;-83
2023/01/13 09:45:43;;;;;;;33.53;19.67;;;11.00;99.90;;;;;;4922624;28;20027;-83
2023/01/13 09:48:25;;;;;;;33.13;19.42;;;11.00;99.90;;;;;;4917856;29;20042;-84
2023/01/13 09:51:13;;;;;;;39.97;21.65;;;11.10;99.90;;;;;;4919378;29;20043;-83
2023/01/13 09:53:43;;;;;;;35.40;18.88;;;11.10;99.90;;;;;;4919919;29;20036;-83
2023/01/13 09:56:09;;;;;;;37.33;19.20;;;11.10;99.90;;;;;;4916234;29;20501;-83
2023/01/13 09:58:35;;;;;;;34.28;18.02;;;11.10;99.90;;;;;;4904150;29;20032;-84
2023/01/13 10:01:26;;;;;;;37.53;19.75;;;11.20;99.90;;;;;;4919783;29;20040;-86
2023/01/13 10:03:52;;;;;;;25.70;15.80;;;11.20;99.90;;;;;;4903613;29;20032;-85
2023/01/13 10:06:33;;;;;;;37.47;16.80;;;11.30;99.90;;;;;;4886341;29;20039;-84
2023/01/13 10:08:59;;;;;;;34.45;18.08;;;11.30;99.90;;;;;;4919782;29;20027;-84
2023/01/13 10:14:19;;;;;;;37.63;17.67;;;11.60;99.90;;;;;;4922250;29;20059;-84
2023/01/13 10:17:00;;;;;;;40.08;18.67;;;11.80;99.90;;;;;;4934704;28;20413;-85
2023/01/13 10:19:54;;;;;;;37.00;20.63;;;12.00;99.90;;;;;;4936233;29;20042;-86
2023/01/13 10:22:22;;;;;;;29.13;17.95;;;12.10;99.90;;;;;;4918135;29;20492;-84
2023/01/13 10:25:08;;;;;;;27.60;19.42;;;12.10;99.90;;;;;;4917076;29;20634;-84
2023/01/13 10:27:38;;;;;;;34.38;20.27;;;12.20;99.90;;;;;;4923461;29;20501;-84
2023/01/13 10:30:30;;;;;;;30.70;18.17;;;12.20;99.90;;;;;;4917251;29;20048;-84
2023/01/13 10:32:57;;;;;;;28.35;16.15;;;12.30;99.90;;;;;;4918414;29;20043;-84
2023/01/13 10:35:56;;;;;;;32.58;16.92;;;12.30;99.90;;;;;;4911694;29;20162;-84
2023/01/13 10:38:23;;;;;;;27.13;16.50;;;12.30;99.90;;;;;;4900072;29;20052;-84
2023/01/13 10:40:57;;;;;;;27.75;17.38;;;12.40;99.90;;;;;;4915367;29;20042;-84
2023/01/13 10:43:23;;;;;;;29.60;16.98;;;12.40;99.90;;;;;;4919235;29;20028;-84
2023/01/13 10:46:14;;;;;;;30.50;15.73;;;12.40;99.90;;;;;;4917144;29;20035;-87
2023/01/13 10:48:41;;;;;;;;;;;12.40;99.90;;;;;;4917896;29;20040;-86
2023/01/13 10:51:23;;;;;;;29.80;16.83;;;12.40;99.90;;;;;;4917325;29;19911;-84
2023/01/13 10:54:22;;;;;;;25.23;16.33;;;12.40;99.90;;;;;;4918333;29;20382;-92
2023/01/13 10:56:49;;;;;;;29.77;17.00;;;12.30;99.90;;;;;;4892621;29;20064;-87
2023/01/13 10:59:27;;;;;;;41.30;16.75;;;12.30;99.90;;;;;;4875800;29;20080;-85
2023/01/13 11:02:02;;;;;;;28.20;15.75;;;12.40;99.90;;;;;;4890364;29;20037;-83
2023/01/13 11:04:38;;;;;;;30.02;15.73;;;12.30;99.90;;;;;;4893864;29;20049;-83
2023/01/13 11:07:05;;;;;;;38.90;15.90;;;12.30;99.90;;;;;;4892241;29;20045;-83
2023/01/13 11:09:31;;;;;;;29.55;15.90;;;12.30;99.90;;;;;;4891625;29;20033;-83
2023/01/13 11:11:58;;;;;;;39.53;16.80;;;12.30;99.90;;;;;;4890259;29;20048;-86
2023/01/13 11:14:41;;;;;;;30.90;16.33;;;12.30;99.90;;;;;;4894157;29;20052;-84
2023/01/13 11:17:31;;;;;;;26.65;15.57;;;12.30;99.90;;;;;;4878212;29;20057;-84
2023/01/13 11:20:29;;;;;;;29.73;16.23;;;12.30;99.90;;;;;;4866140;29;20043;-83
2023/01/13 11:22:56;;;;;;;28.60;16.60;;;12.50;99.90;;;;;;4896775;29;20040;-83
2023/01/13 11:25:31;;;;;;;31.98;18.23;;;12.60;99.90;;;;;;4878190;29;20048;-84
2023/01/13 11:28:05;;;;;;;34.40;18.50;;;12.70;99.90;;;;;;4878390;29;20047;-83
2023/01/13 11:30:34;;;;;;;32.95;17.70;;;12.80;99.90;;;;;;4890473;29;20036;-84
2023/01/13 11:33:14;;;;;;;32.58;17.48;;;12.80;99.90;;;;;;4920413;29;20038;-84
2023/01/13 11:35:50;;;;;;;25.92;17.45;;;12.90;99.90;;;;;;4913214;29;20512;-83
2023/01/13 11:38:27;;;;;;;32.60;18.92;;;13.00;99.90;;;;;;4899332;29;20062;-88
2023/01/13 11:40:53;;;;;;;30.20;17.95;;;13.10;99.90;;;;;;4899761;29;20497;-87
2023/01/13 11:43:28;;;;;;;28.63;18.05;;;13.10;99.90;;;;;;4917322;29;20501;-86
2023/01/13 11:45:58;;;;;;;26.50;16.13;;;13.10;99.90;;;;;;4899083;29;20035;-86
2023/01/13 11:48:27;;;;;;;34.95;18.65;;;13.10;99.90;;;;;;4916115;29;20382;-86
2023/01/13 11:51:03;;;;;;;30.05;18.25;;;13.00;99.90;;;;;;4898402;29;20771;-86
2023/01/13 11:53:44;;;;;;;31.15;17.58;;;13.10;99.90;;;;;;4897686;29;20040;-87
2023/01/13 11:56:10;;;;;;;;;;;13.20;99.90;;;;;;4933996;29;20401;-86
2023/01/13 11:58:44;;;;;;;35.10;17.63;;;13.30;99.90;;;;;;4933031;29;19946;-86
2023/01/13 12:01:34;;;;;;;34.28;19.50;;;13.40;99.90;;;;;;4914656;29;20057;-85
2023/01/13 12:04:19;;;;;;;28.27;16.33;;;13.50;99.90;;;;;;4931132;29;20400;-86
2023/01/13 12:06:45;;;;;;;34.08;19.25;;;13.60;99.90;;;;;;4932912;29;20044;-86
2023/01/13 12:09:54;;;;;;;31.30;18.77;;;13.60;99.90;;;;;;4897404;29;20497;-86
2023/01/13 12:12:44;;;;;;;27.52;17.83;;;13.60;99.90;;;;;;4854305;29;20029;-85
2023/01/13 12:15:34;;;;;;;28.73;18.95;;;13.80;99.90;;;;;;4854241;29;20037;-85
2023/01/13 12:18:21;;;;;;;28.08;19.30;;;13.80;99.90;;;;;;4856966;29;20068;-87
2023/01/13 12:21:00;;;;;;;29.48;20.00;;;13.80;99.90;;;;;;4864368;29;20052;-85
2023/01/13 12:23:31;;;;;;;23.55;19.75;;;13.90;99.90;;;;;;4860069;29;20045;-84
2023/01/13 12:26:21;;;;;;;27.15;20.00;;;13.90;99.90;;;;;;4856614;29;20074;-85
2023/01/13 12:29:05;;;;;;;26.48;18.70;;;13.90;99.90;;;;;;4840676;29;20038;-85
2023/01/13 12:31:34;;;;;;;22.83;17.63;;;13.80;99.90;;;;;;4842232;29;20041;-87
2023/01/13 12:34:23;;;;;;;28.27;18.27;;;14.00;99.90;;;;;;4853726;29;20535;-85
2023/01/13 12:36:52;;;;;;;25.15;17.90;;;14.00;99.90;;;;;;4855758;29;20077;-85
2023/01/13 12:39:39;;;;;;;23.42;16.75;;;14.00;99.90;;;;;;4858197;29;20037;-86
2023/01/13 12:45:20;;;;;;;28.77;17.75;;;13.80;99.90;;;;;;4915622;29;20046;-85
2023/01/13 12:47:46;;;;;;;29.65;17.02;;;13.70;99.90;;;;;;4935411;29;20048;-85
2023/01/13 12:50:22;;;;;;;32.10;19.45;;;13.70;99.90;;;;;;4903056;29;20032;-86
2023/01/13 12:52:49;;;;;;;29.05;17.83;;;13.60;99.90;;;;;;4935915;29;20040;-86
2023/01/13 12:55:36;;;;;;;23.92;17.05;;;13.50;99.90;;;;;;4920918;29;20024;-86
2023/01/13 12:58:04;;;;;;;27.92;16.23;;;13.60;99.90;;;;;;4903641;29;20500;-86
2023/01/13 13:00:40;;;;;;;31.80;16.15;;;13.70;99.90;;;;;;4935929;28;20040;-86
2023/01/13 13:03:14;;;;;;;24.00;16.92;;;13.80;99.90;;;;;;4934825;29;20032;-87
2023/01/13 13:06:10;;;;;;;25.17;17.67;;;13.90;99.90;;;;;;4934502;29;20781;-86
2023/01/13 13:08:58;;;;;;;28.08;17.65;;;14.00;99.90;;;;;;4914871;29;20421;-86
2023/01/13 13:14:40;;;;;;;21.20;18.92;;;14.00;99.90;;;;;;4916396;29;20055;-85
2023/01/13 13:17:27;;;;;;;23.90;18.33;;;14.00;99.90;;;;;;4924996;29;20055;-86
2023/01/13 13:19:55;;;;;;;28.48;18.77;;;14.00;99.90;;;;;;4938489;29;20035;-86
2023/01/13 13:22:27;;;;;;;21.65;15.02;;;14.00;99.90;;;;;;4920543;29;20043;-86
2023/01/13 13:24:56;;;;;;;25.20;16.98;;;14.00;99.90;;;;;;4936462;29;20032;-86
2023/01/13 13:27:35;;;;;;;23.48;18.23;;;14.00;99.90;;;;;;4943964;29;20373;-86
2023/01/13 13:30:14;;;;;;;26.35;13.80;;;14.00;99.90;;;;;;4920722;29;20066;-85